sensor_id;sensor_type;location;lat;lon;timestamp;temperature;humidity
79489;SHT31;68949;53.176;18.088;2023-08-07T00:00:57;14.14;89.11
79489;SHT31;68949;53.176;18.088;2023-08-07T00:03:32;14.12;89.09
79489;SHT31;68949;53.176;18.088;2023-08-07T00:05:58;14.13;89.11
79489;SHT31;68949;53.176;18.088;2023-08-07T00:08:24;14.11;89.14
79489;SHT31;68949;53.176;18.088;2023-08-07T00:10:50;14.11;89.11
79489;SHT31;68949;53.176;18.088;2023-08-07T00:13:16;14.12;89.10
79489;SHT31;68949;53.176;18.088;2023-08-07T00:15:42;14.15;89.05
79489;SHT31;68949;53.176;18.088;2023-08-07T00:18:08;14.16;88.97
79489;SHT31;68949;53.176;18.088;2023-08-07T00:20:34;14.16;88.96
79489;SHT31;68949;53.176;18.088;2023-08-07T00:23:00;14.17;88.95
79489;SHT31;68949;53.176;18.088;2023-08-07T00:25:26;14.17;88.90
79489;SHT31;68949;53.176;18.088;2023-08-07T00:27:53;14.16;88.78
79489;SHT31;68949;53.176;18.088;2023-08-07T00:30:19;14.13;88.82
79489;SHT31;68949;53.176;18.088;2023-08-07T00:32:45;14.13;88.84
79489;SHT31;68949;53.176;18.088;2023-08-07T00:35:11;14.16;88.82
79489;SHT31;68949;53.176;18.088;2023-08-07T00:37:37;14.14;88.79
79489;SHT31;68949;53.176;18.088;2023-08-07T00:40:03;14.12;88.78
79489;SHT31;68949;53.176;18.088;2023-08-07T00:42:29;14.11;88.79
79489;SHT31;68949;53.176;18.088;2023-08-07T00:44:55;14.10;88.78
79489;SHT31;68949;53.176;18.088;2023-08-07T00:47:22;14.09;88.87
79489;SHT31;68949;53.176;18.088;2023-08-07T00:49:48;14.10;88.86
79489;SHT31;68949;53.176;18.088;2023-08-07T00:52:14;14.13;88.81
79489;SHT31;68949;53.176;18.088;2023-08-07T00:54:41;14.11;88.73
79489;SHT31;68949;53.176;18.088;2023-08-07T00:57:11;14.09;88.79
79489;SHT31;68949;53.176;18.088;2023-08-07T00:59:40;14.08;88.74
79489;SHT31;68949;53.176;18.088;2023-08-07T01:02:11;14.06;88.78
79489;SHT31;68949;53.176;18.088;2023-08-07T01:04:39;14.06;88.78
79489;SHT31;68949;53.176;18.088;2023-08-07T01:07:05;14.06;88.72
79489;SHT31;68949;53.176;18.088;2023-08-07T01:09:32;14.06;88.77
79489;SHT31;68949;53.176;18.088;2023-08-07T01:14:52;14.08;88.81
79489;SHT31;68949;53.176;18.088;2023-08-07T01:17:39;14.05;88.82
79489;SHT31;68949;53.176;18.088;2023-08-07T01:20:09;14.05;88.91
79489;SHT31;68949;53.176;18.088;2023-08-07T01:22:37;14.08;88.99
79489;SHT31;68949;53.176;18.088;2023-08-07T01:25:03;14.11;88.88
79489;SHT31;68949;53.176;18.088;2023-08-07T01:28:12;14.07;88.76
79489;SHT31;68949;53.176;18.088;2023-08-07T01:30:30;14.02;88.96
79489;SHT31;68949;53.176;18.088;2023-08-07T01:35:53;13.99;88.92
79489;SHT31;68949;53.176;18.088;2023-08-07T01:38:24;13.98;88.93
79489;SHT31;68949;53.176;18.088;2023-08-07T01:40:51;13.97;88.93
79489;SHT31;68949;53.176;18.088;2023-08-07T01:43:19;13.97;88.96
79489;SHT31;68949;53.176;18.088;2023-08-07T01:45:46;13.97;88.99
79489;SHT31;68949;53.176;18.088;2023-08-07T01:48:11;13.98;89.01
79489;SHT31;68949;53.176;18.088;2023-08-07T01:50:38;13.97;88.94
79489;SHT31;68949;53.176;18.088;2023-08-07T01:53:05;13.96;88.95
79489;SHT31;68949;53.176;18.088;2023-08-07T01:55:31;13.98;88.88
79489;SHT31;68949;53.176;18.088;2023-08-07T01:57:58;13.99;88.89
79489;SHT31;68949;53.176;18.088;2023-08-07T02:00:24;14.00;88.78
79489;SHT31;68949;53.176;18.088;2023-08-07T02:02:50;13.96;88.79
79489;SHT31;68949;53.176;18.088;2023-08-07T02:05:16;13.96;88.80
79489;SHT31;68949;53.176;18.088;2023-08-07T02:07:42;13.95;88.81
79489;SHT31;68949;53.176;18.088;2023-08-07T02:10:10;13.94;88.85
79489;SHT31;68949;53.176;18.088;2023-08-07T02:12:36;13.93;88.87
79489;SHT31;68949;53.176;18.088;2023-08-07T02:15:02;13.93;88.90
79489;SHT31;68949;53.176;18.088;2023-08-07T02:17:28;13.92;88.87
79489;SHT31;68949;53.176;18.088;2023-08-07T02:19:58;13.92;88.87
79489;SHT31;68949;53.176;18.088;2023-08-07T02:22:24;13.95;88.93
79489;SHT31;68949;53.176;18.088;2023-08-07T02:24:51;13.97;88.80
79489;SHT31;68949;53.176;18.088;2023-08-07T02:27:17;13.96;88.87
79489;SHT31;68949;53.176;18.088;2023-08-07T02:29:43;13.95;88.92
79489;SHT31;68949;53.176;18.088;2023-08-07T02:32:09;13.92;88.87
79489;SHT31;68949;53.176;18.088;2023-08-07T02:34:35;13.89;88.95
79489;SHT31;68949;53.176;18.088;2023-08-07T02:37:01;13.89;89.06
79489;SHT31;68949;53.176;18.088;2023-08-07T02:39:27;13.92;89.04
79489;SHT31;68949;53.176;18.088;2023-08-07T02:41:53;13.91;89.00
79489;SHT31;68949;53.176;18.088;2023-08-07T02:44:19;13.90;89.03
79489;SHT31;68949;53.176;18.088;2023-08-07T02:46:46;13.88;88.96
79489;SHT31;68949;53.176;18.088;2023-08-07T02:49:12;13.87;88.94
79489;SHT31;68949;53.176;18.088;2023-08-07T02:51:38;13.87;88.98
79489;SHT31;68949;53.176;18.088;2023-08-07T02:54:04;13.89;88.90
79489;SHT31;68949;53.176;18.088;2023-08-07T02:56:30;13.86;88.88
79489;SHT31;68949;53.176;18.088;2023-08-07T02:58:56;13.85;88.90
79489;SHT31;68949;53.176;18.088;2023-08-07T03:01:23;13.87;88.90
79489;SHT31;68949;53.176;18.088;2023-08-07T03:03:49;13.87;88.81
79489;SHT31;68949;53.176;18.088;2023-08-07T03:06:16;13.86;88.77
79489;SHT31;68949;53.176;18.088;2023-08-07T03:08:42;13.85;88.80
79489;SHT31;68949;53.176;18.088;2023-08-07T03:11:08;13.83;88.77
79489;SHT31;68949;53.176;18.088;2023-08-07T03:13:34;13.83;88.80
79489;SHT31;68949;53.176;18.088;2023-08-07T03:16:01;13.83;88.67
79489;SHT31;68949;53.176;18.088;2023-08-07T03:18:29;13.83;88.76
79489;SHT31;68949;53.176;18.088;2023-08-07T03:20:56;13.84;88.71
79489;SHT31;68949;53.176;18.088;2023-08-07T03:23:23;13.85;88.70
79489;SHT31;68949;53.176;18.088;2023-08-07T03:25:51;13.84;88.58
79489;SHT31;68949;53.176;18.088;2023-08-07T03:28:35;13.80;88.61
79489;SHT31;68949;53.176;18.088;2023-08-07T03:31:02;13.78;88.65
79489;SHT31;68949;53.176;18.088;2023-08-07T03:33:30;13.76;88.72
79489;SHT31;68949;53.176;18.088;2023-08-07T03:35:56;13.75;88.86
79489;SHT31;68949;53.176;18.088;2023-08-07T03:38:23;13.77;88.80
79489;SHT31;68949;53.176;18.088;2023-08-07T03:40:50;13.79;88.80
79489;SHT31;68949;53.176;18.088;2023-08-07T03:43:17;13.80;88.80
79489;SHT31;68949;53.176;18.088;2023-08-07T03:45:44;13.81;88.77
79489;SHT31;68949;53.176;18.088;2023-08-07T03:48:10;13.83;88.76
79489;SHT31;68949;53.176;18.088;2023-08-07T03:50:36;13.82;88.60
79489;SHT31;68949;53.176;18.088;2023-08-07T03:53:05;13.81;88.68
79489;SHT31;68949;53.176;18.088;2023-08-07T03:55:35;13.85;88.66
79489;SHT31;68949;53.176;18.088;2023-08-07T03:58:01;13.85;88.71
79489;SHT31;68949;53.176;18.088;2023-08-07T04:00:28;13.84;88.63
79489;SHT31;68949;53.176;18.088;2023-08-07T04:02:54;13.83;88.56
79489;SHT31;68949;53.176;18.088;2023-08-07T04:05:21;13.82;88.50
79489;SHT31;68949;53.176;18.088;2023-08-07T04:07:47;13.83;88.48
79489;SHT31;68949;53.176;18.088;2023-08-07T04:10:13;13.80;88.46
79489;SHT31;68949;53.176;18.088;2023-08-07T04:12:39;13.78;88.47
79489;SHT31;68949;53.176;18.088;2023-08-07T04:15:05;13.79;88.45
79489;SHT31;68949;53.176;18.088;2023-08-07T04:17:32;13.78;88.50
79489;SHT31;68949;53.176;18.088;2023-08-07T04:19:58;13.76;88.55
79489;SHT31;68949;53.176;18.088;2023-08-07T04:22:24;13.76;88.59
79489;SHT31;68949;53.176;18.088;2023-08-07T04:24:50;13.75;88.60
79489;SHT31;68949;53.176;18.088;2023-08-07T04:27:16;13.73;88.70
79489;SHT31;68949;53.176;18.088;2023-08-07T04:29:42;13.72;88.68
79489;SHT31;68949;53.176;18.088;2023-08-07T04:32:08;13.71;88.70
79489;SHT31;68949;53.176;18.088;2023-08-07T04:34:34;13.70;88.69
79489;SHT31;68949;53.176;18.088;2023-08-07T04:37:00;13.72;88.74
79489;SHT31;68949;53.176;18.088;2023-08-07T04:39:27;13.73;88.68
79489;SHT31;68949;53.176;18.088;2023-08-07T04:41:53;13.73;88.62
79489;SHT31;68949;53.176;18.088;2023-08-07T04:44:19;13.72;88.69
79489;SHT31;68949;53.176;18.088;2023-08-07T04:46:45;13.74;88.69
79489;SHT31;68949;53.176;18.088;2023-08-07T04:49:10;13.74;88.72
79489;SHT31;68949;53.176;18.088;2023-08-07T04:51:36;13.72;88.70
79489;SHT31;68949;53.176;18.088;2023-08-07T04:54:02;13.70;88.75
79489;SHT31;68949;53.176;18.088;2023-08-07T04:56:28;13.71;88.89
79489;SHT31;68949;53.176;18.088;2023-08-07T04:58:56;13.69;88.79
79489;SHT31;68949;53.176;18.088;2023-08-07T05:01:22;13.69;88.89
79489;SHT31;68949;53.176;18.088;2023-08-07T05:03:48;13.71;88.93
79489;SHT31;68949;53.176;18.088;2023-08-07T05:06:14;13.71;88.86
79489;SHT31;68949;53.176;18.088;2023-08-07T05:08:40;13.69;88.96
79489;SHT31;68949;53.176;18.088;2023-08-07T05:11:06;13.70;88.86
79489;SHT31;68949;53.176;18.088;2023-08-07T05:13:32;13.71;88.92
79489;SHT31;68949;53.176;18.088;2023-08-07T05:15:58;13.70;88.89
79489;SHT31;68949;53.176;18.088;2023-08-07T05:18:24;13.70;88.74
79489;SHT31;68949;53.176;18.088;2023-08-07T05:20:50;13.70;88.80
79489;SHT31;68949;53.176;18.088;2023-08-07T05:23:16;13.69;88.76
79489;SHT31;68949;53.176;18.088;2023-08-07T05:25:44;13.66;88.89
79489;SHT31;68949;53.176;18.088;2023-08-07T05:28:12;13.67;88.96
79489;SHT31;68949;53.176;18.088;2023-08-07T05:30:38;13.65;88.97
79489;SHT31;68949;53.176;18.088;2023-08-07T05:33:04;13.63;88.94
79489;SHT31;68949;53.176;18.088;2023-08-07T05:35:30;13.61;89.07
79489;SHT31;68949;53.176;18.088;2023-08-07T05:37:56;13.64;89.14
79489;SHT31;68949;53.176;18.088;2023-08-07T05:40:22;13.68;89.12
79489;SHT31;68949;53.176;18.088;2023-08-07T05:42:48;13.69;88.94
79489;SHT31;68949;53.176;18.088;2023-08-07T05:45:14;13.71;88.93
79489;SHT31;68949;53.176;18.088;2023-08-07T05:47:40;13.72;88.96
79489;SHT31;68949;53.176;18.088;2023-08-07T05:50:06;13.74;88.90
79489;SHT31;68949;53.176;18.088;2023-08-07T05:52:33;13.77;88.88
79489;SHT31;68949;53.176;18.088;2023-08-07T05:54:59;13.79;89.00
79489;SHT31;68949;53.176;18.088;2023-08-07T05:57:25;13.85;88.81
79489;SHT31;68949;53.176;18.088;2023-08-07T05:59:51;13.85;88.70
79489;SHT31;68949;53.176;18.088;2023-08-07T06:02:17;13.83;88.72
79489;SHT31;68949;53.176;18.088;2023-08-07T06:04:43;13.82;88.70
79489;SHT31;68949;53.176;18.088;2023-08-07T06:07:09;13.83;88.66
79489;SHT31;68949;53.176;18.088;2023-08-07T06:09:36;13.85;88.72
79489;SHT31;68949;53.176;18.088;2023-08-07T06:12:02;13.85;88.69
79489;SHT31;68949;53.176;18.088;2023-08-07T06:14:28;13.85;88.80
79489;SHT31;68949;53.176;18.088;2023-08-07T06:16:54;13.87;88.70
79489;SHT31;68949;53.176;18.088;2023-08-07T06:19:23;13.87;88.67
79489;SHT31;68949;53.176;18.088;2023-08-07T06:21:49;13.88;88.65
79489;SHT31;68949;53.176;18.088;2023-08-07T06:24:15;13.92;88.78
79489;SHT31;68949;53.176;18.088;2023-08-07T06:26:41;13.96;88.63
79489;SHT31;68949;53.176;18.088;2023-08-07T06:29:07;13.99;88.63
79489;SHT31;68949;53.176;18.088;2023-08-07T06:31:33;14.01;88.59
79489;SHT31;68949;53.176;18.088;2023-08-07T06:33:59;14.05;88.64
79489;SHT31;68949;53.176;18.088;2023-08-07T06:36:25;14.10;88.41
79489;SHT31;68949;53.176;18.088;2023-08-07T06:38:52;14.09;88.29
79489;SHT31;68949;53.176;18.088;2023-08-07T06:41:18;14.08;88.46
79489;SHT31;68949;53.176;18.088;2023-08-07T06:43:44;14.10;88.33
79489;SHT31;68949;53.176;18.088;2023-08-07T06:46:10;14.15;88.28
79489;SHT31;68949;53.176;18.088;2023-08-07T06:48:37;14.17;88.17
79489;SHT31;68949;53.176;18.088;2023-08-07T06:51:03;14.20;88.10
79489;SHT31;68949;53.176;18.088;2023-08-07T06:53:29;14.26;88.10
79489;SHT31;68949;53.176;18.088;2023-08-07T06:55:55;14.37;87.89
79489;SHT31;68949;53.176;18.088;2023-08-07T06:58:21;14.45;87.71
79489;SHT31;68949;53.176;18.088;2023-08-07T07:00:47;14.50;87.46
79489;SHT31;68949;53.176;18.088;2023-08-07T07:03:13;14.59;87.36
79489;SHT31;68949;53.176;18.088;2023-08-07T07:05:40;14.62;87.13
79489;SHT31;68949;53.176;18.088;2023-08-07T07:08:08;14.64;87.18
79489;SHT31;68949;53.176;18.088;2023-08-07T07:10:34;14.64;87.12
79489;SHT31;68949;53.176;18.088;2023-08-07T07:13:00;14.64;87.13
79489;SHT31;68949;53.176;18.088;2023-08-07T07:15:26;14.68;87.19
79489;SHT31;68949;53.176;18.088;2023-08-07T07:17:52;14.71;87.19
79489;SHT31;68949;53.176;18.088;2023-08-07T07:20:18;14.71;87.03
79489;SHT31;68949;53.176;18.088;2023-08-07T07:22:44;14.71;87.24
79489;SHT31;68949;53.176;18.088;2023-08-07T07:25:10;14.69;87.30
79489;SHT31;68949;53.176;18.088;2023-08-07T07:27:38;14.65;87.20
79489;SHT31;68949;53.176;18.088;2023-08-07T07:30:05;14.55;87.11
79489;SHT31;68949;53.176;18.088;2023-08-07T07:32:33;14.50;87.31
79489;SHT31;68949;53.176;18.088;2023-08-07T07:34:59;14.49;87.33
79489;SHT31;68949;53.176;18.088;2023-08-07T07:37:25;14.49;87.35
79489;SHT31;68949;53.176;18.088;2023-08-07T07:39:51;14.51;87.55
79489;SHT31;68949;53.176;18.088;2023-08-07T07:42:17;14.52;87.46
79489;SHT31;68949;53.176;18.088;2023-08-07T07:44:43;14.54;87.19
79489;SHT31;68949;53.176;18.088;2023-08-07T07:47:09;14.53;87.09
79489;SHT31;68949;53.176;18.088;2023-08-07T07:49:35;14.57;87.30
79489;SHT31;68949;53.176;18.088;2023-08-07T07:52:01;14.71;87.44
79489;SHT31;68949;53.176;18.088;2023-08-07T07:54:28;14.86;87.33
79489;SHT31;68949;53.176;18.088;2023-08-07T07:56:57;14.99;87.09
79489;SHT31;68949;53.176;18.088;2023-08-07T07:59:23;15.12;86.53
79489;SHT31;68949;53.176;18.088;2023-08-07T08:01:49;15.24;85.90
79489;SHT31;68949;53.176;18.088;2023-08-07T08:04:15;15.36;85.83
79489;SHT31;68949;53.176;18.088;2023-08-07T08:06:41;15.50;85.86
79489;SHT31;68949;53.176;18.088;2023-08-07T08:09:07;15.66;85.61
79489;SHT31;68949;53.176;18.088;2023-08-07T08:11:35;15.81;84.92
79489;SHT31;68949;53.176;18.088;2023-08-07T08:14:01;15.93;84.31
79489;SHT31;68949;53.176;18.088;2023-08-07T08:16:27;16.03;83.96
79489;SHT31;68949;53.176;18.088;2023-08-07T08:18:53;16.11;83.69
79489;SHT31;68949;53.176;18.088;2023-08-07T08:21:19;16.22;82.70
79489;SHT31;68949;53.176;18.088;2023-08-07T08:23:45;16.27;82.13
79489;SHT31;68949;53.176;18.088;2023-08-07T08:26:11;16.26;82.29
79489;SHT31;68949;53.176;18.088;2023-08-07T08:28:37;16.37;82.15
79489;SHT31;68949;53.176;18.088;2023-08-07T08:31:04;16.47;81.13
79489;SHT31;68949;53.176;18.088;2023-08-07T08:33:31;16.53;81.10
79489;SHT31;68949;53.176;18.088;2023-08-07T08:35:56;16.59;80.50
79489;SHT31;68949;53.176;18.088;2023-08-07T08:38:22;16.68;80.57
79489;SHT31;68949;53.176;18.088;2023-08-07T08:40:49;16.72;79.93
79489;SHT31;68949;53.176;18.088;2023-08-07T08:43:18;16.82;79.53
79489;SHT31;68949;53.176;18.088;2023-08-07T08:45:45;16.95;79.57
79489;SHT31;68949;53.176;18.088;2023-08-07T08:48:12;17.08;78.58
79489;SHT31;68949;53.176;18.088;2023-08-07T08:50:48;17.20;78.21
79489;SHT31;68949;53.176;18.088;2023-08-07T08:53:16;17.31;77.71
79489;SHT31;68949;53.176;18.088;2023-08-07T08:55:43;17.44;77.11
79489;SHT31;68949;53.176;18.088;2023-08-07T08:58:13;17.56;76.62
79489;SHT31;68949;53.176;18.088;2023-08-07T09:00:41;17.66;75.92
79489;SHT31;68949;53.176;18.088;2023-08-07T09:03:07;17.80;76.24
79489;SHT31;68949;53.176;18.088;2023-08-07T09:05:34;17.95;75.18
79489;SHT31;68949;53.176;18.088;2023-08-07T09:08:03;18.11;73.41
79489;SHT31;68949;53.176;18.088;2023-08-07T09:10:31;18.29;73.33
79489;SHT31;68949;53.176;18.088;2023-08-07T09:13:01;18.50;72.49
79489;SHT31;68949;53.176;18.088;2023-08-07T09:15:31;18.51;72.09
79489;SHT31;68949;53.176;18.088;2023-08-07T09:17:58;18.55;72.64
79489;SHT31;68949;53.176;18.088;2023-08-07T09:20:25;18.67;72.63
79489;SHT31;68949;53.176;18.088;2023-08-07T09:22:51;18.64;71.36
79489;SHT31;68949;53.176;18.088;2023-08-07T09:25:27;18.48;70.66
79489;SHT31;68949;53.176;18.088;2023-08-07T09:28:02;18.35;71.00
79489;SHT31;68949;53.176;18.088;2023-08-07T09:30:31;18.25;71.13
79489;SHT31;68949;53.176;18.088;2023-08-07T09:33:00;18.03;70.03
79489;SHT31;68949;53.176;18.088;2023-08-07T09:35:28;17.84;71.21
79489;SHT31;68949;53.176;18.088;2023-08-07T09:38:00;17.70;71.47
79489;SHT31;68949;53.176;18.088;2023-08-07T09:40:29;17.60;71.71
79489;SHT31;68949;53.176;18.088;2023-08-07T09:42:56;17.60;72.15
79489;SHT31;68949;53.176;18.088;2023-08-07T09:45:26;17.60;72.53
79489;SHT31;68949;53.176;18.088;2023-08-07T09:48:01;17.57;72.65
79489;SHT31;68949;53.176;18.088;2023-08-07T09:50:30;17.58;72.33
79489;SHT31;68949;53.176;18.088;2023-08-07T09:52:57;17.70;72.37
79489;SHT31;68949;53.176;18.088;2023-08-07T09:55:24;18.02;72.05
79489;SHT31;68949;53.176;18.088;2023-08-07T09:57:52;18.21;70.49
79489;SHT31;68949;53.176;18.088;2023-08-07T10:00:19;18.14;67.58
79489;SHT31;68949;53.176;18.088;2023-08-07T10:02:46;17.97;67.83
79489;SHT31;68949;53.176;18.088;2023-08-07T10:05:16;17.82;69.38
79489;SHT31;68949;53.176;18.088;2023-08-07T10:07:43;17.70;67.59
79489;SHT31;68949;53.176;18.088;2023-08-07T10:10:10;17.59;67.73
79489;SHT31;68949;53.176;18.088;2023-08-07T10:12:37;17.50;67.08
79489;SHT31;68949;53.176;18.088;2023-08-07T10:15:04;17.42;68.53
79489;SHT31;68949;53.176;18.088;2023-08-07T10:17:32;17.35;69.29
79489;SHT31;68949;53.176;18.088;2023-08-07T10:20:00;17.27;70.18
79489;SHT31;68949;53.176;18.088;2023-08-07T10:22:29;17.19;70.56
79489;SHT31;68949;53.176;18.088;2023-08-07T10:24:57;17.12;70.82
79489;SHT31;68949;53.176;18.088;2023-08-07T10:27:27;17.09;71.17
79489;SHT31;68949;53.176;18.088;2023-08-07T10:29:59;17.10;71.23
79489;SHT31;68949;53.176;18.088;2023-08-07T10:32:28;17.12;71.42
79489;SHT31;68949;53.176;18.088;2023-08-07T10:34:56;17.16;71.66
79489;SHT31;68949;53.176;18.088;2023-08-07T10:37:44;17.19;71.94
79489;SHT31;68949;53.176;18.088;2023-08-07T10:40:12;17.27;72.01
79489;SHT31;68949;53.176;18.088;2023-08-07T10:45:20;17.33;71.53
79489;SHT31;68949;53.176;18.088;2023-08-07T10:50:49;17.24;72.12
79489;SHT31;68949;53.176;18.088;2023-08-07T10:53:30;17.16;72.43
79489;SHT31;68949;53.176;18.088;2023-08-07T10:56:39;17.01;73.13
79489;SHT31;68949;53.176;18.088;2023-08-07T10:59:10;16.92;73.31
79489;SHT31;68949;53.176;18.088;2023-08-07T11:04:08;16.85;73.81
79489;SHT31;68949;53.176;18.088;2023-08-07T11:06:42;16.84;74.36
79489;SHT31;68949;53.176;18.088;2023-08-07T11:09:14;16.88;74.90
79489;SHT31;68949;53.176;18.088;2023-08-07T11:11:44;16.93;74.86
79489;SHT31;68949;53.176;18.088;2023-08-07T11:14:17;17.00;74.96
79489;SHT31;68949;53.176;18.088;2023-08-07T11:16:46;17.10;75.04
79489;SHT31;68949;53.176;18.088;2023-08-07T11:19:14;17.19;75.40
79489;SHT31;68949;53.176;18.088;2023-08-07T11:21:43;17.28;75.07
79489;SHT31;68949;53.176;18.088;2023-08-07T11:24:12;17.35;75.12
79489;SHT31;68949;53.176;18.088;2023-08-07T11:26:42;17.37;74.84
79489;SHT31;68949;53.176;18.088;2023-08-07T11:29:15;17.42;74.56
79489;SHT31;68949;53.176;18.088;2023-08-07T11:31:45;17.53;74.98
79489;SHT31;68949;53.176;18.088;2023-08-07T11:34:12;17.67;74.64
79489;SHT31;68949;53.176;18.088;2023-08-07T11:36:41;17.82;74.94
79489;SHT31;68949;53.176;18.088;2023-08-07T11:39:09;17.95;74.68
79489;SHT31;68949;53.176;18.088;2023-08-07T11:41:37;18.01;74.28
79489;SHT31;68949;53.176;18.088;2023-08-07T11:44:04;18.11;75.02
79489;SHT31;68949;53.176;18.088;2023-08-07T11:46:30;18.12;73.88
79489;SHT31;68949;53.176;18.088;2023-08-07T11:48:56;18.12;74.11
79489;SHT31;68949;53.176;18.088;2023-08-07T11:51:22;17.99;73.65
79489;SHT31;68949;53.176;18.088;2023-08-07T11:53:53;17.80;73.91
79489;SHT31;68949;53.176;18.088;2023-08-07T11:56:22;17.68;74.38
79489;SHT31;68949;53.176;18.088;2023-08-07T11:58:48;17.67;74.62
79489;SHT31;68949;53.176;18.088;2023-08-07T12:01:19;17.72;74.67
79489;SHT31;68949;53.176;18.088;2023-08-07T12:03:55;17.84;74.40
79489;SHT31;68949;53.176;18.088;2023-08-07T12:06:34;17.93;73.62
79489;SHT31;68949;53.176;18.088;2023-08-07T12:09:02;18.02;72.25
79489;SHT31;68949;53.176;18.088;2023-08-07T12:11:30;18.11;71.71
79489;SHT31;68949;53.176;18.088;2023-08-07T12:13:59;18.20;71.37
79489;SHT31;68949;53.176;18.088;2023-08-07T12:16:31;18.28;71.14
79489;SHT31;68949;53.176;18.088;2023-08-07T12:19:00;18.36;70.79
79489;SHT31;68949;53.176;18.088;2023-08-07T12:21:27;18.38;69.88
79489;SHT31;68949;53.176;18.088;2023-08-07T12:23:56;18.41;70.04
79489;SHT31;68949;53.176;18.088;2023-08-07T12:26:24;18.49;69.87
79489;SHT31;68949;53.176;18.088;2023-08-07T12:28:51;18.61;69.57
79489;SHT31;68949;53.176;18.088;2023-08-07T12:31:20;18.72;69.15
79489;SHT31;68949;53.176;18.088;2023-08-07T12:33:46;18.79;68.10
79489;SHT31;68949;53.176;18.088;2023-08-07T12:36:12;18.87;68.01
79489;SHT31;68949;53.176;18.088;2023-08-07T12:38:40;19.01;67.83
79489;SHT31;68949;53.176;18.088;2023-08-07T12:41:07;19.21;67.92
79489;SHT31;68949;53.176;18.088;2023-08-07T12:43:33;19.41;67.07
79489;SHT31;68949;53.176;18.088;2023-08-07T12:46:00;19.42;65.83
79489;SHT31;68949;53.176;18.088;2023-08-07T12:48:26;19.32;65.16
79489;SHT31;68949;53.176;18.088;2023-08-07T12:50:54;19.15;63.66
79489;SHT31;68949;53.176;18.088;2023-08-07T12:53:21;19.04;62.94
79489;SHT31;68949;53.176;18.088;2023-08-07T12:55:48;18.99;63.28
79489;SHT31;68949;53.176;18.088;2023-08-07T12:58:14;18.97;63.40
79489;SHT31;68949;53.176;18.088;2023-08-07T13:00:41;18.98;63.57
79489;SHT31;68949;53.176;18.088;2023-08-07T13:03:07;19.04;63.30
79489;SHT31;68949;53.176;18.088;2023-08-07T13:05:33;19.11;63.20
79489;SHT31;68949;53.176;18.088;2023-08-07T13:07:59;19.11;63.09
79489;SHT31;68949;53.176;18.088;2023-08-07T13:10:25;19.02;62.62
79489;SHT31;68949;53.176;18.088;2023-08-07T13:12:56;18.84;62.69
79489;SHT31;68949;53.176;18.088;2023-08-07T13:15:23;18.68;62.19
79489;SHT31;68949;53.176;18.088;2023-08-07T13:17:50;18.55;62.75
79489;SHT31;68949;53.176;18.088;2023-08-07T13:20:16;18.48;63.01
79489;SHT31;68949;53.176;18.088;2023-08-07T13:22:43;18.47;62.64
79489;SHT31;68949;53.176;18.088;2023-08-07T13:25:11;18.51;62.75
79489;SHT31;68949;53.176;18.088;2023-08-07T13:27:39;18.65;62.71
79489;SHT31;68949;53.176;18.088;2023-08-07T13:30:06;18.86;62.61
79489;SHT31;68949;53.176;18.088;2023-08-07T13:32:34;19.07;62.64
79489;SHT31;68949;53.176;18.088;2023-08-07T13:35:02;19.32;62.43
79489;SHT31;68949;53.176;18.088;2023-08-07T13:37:28;19.63;62.02
79489;SHT31;68949;53.176;18.088;2023-08-07T13:39:55;19.82;61.25
79489;SHT31;68949;53.176;18.088;2023-08-07T13:42:23;20.02;61.30
79489;SHT31;68949;53.176;18.088;2023-08-07T13:44:51;20.13;60.40
79489;SHT31;68949;53.176;18.088;2023-08-07T13:47:17;20.07;60.01
79489;SHT31;68949;53.176;18.088;2023-08-07T13:49:46;19.92;60.07
79489;SHT31;68949;53.176;18.088;2023-08-07T13:52:12;19.77;59.63
79489;SHT31;68949;53.176;18.088;2023-08-07T13:54:39;19.62;59.47
79489;SHT31;68949;53.176;18.088;2023-08-07T13:57:05;19.53;59.73
79489;SHT31;68949;53.176;18.088;2023-08-07T13:59:31;19.44;60.12
79489;SHT31;68949;53.176;18.088;2023-08-07T14:01:57;19.37;60.36
79489;SHT31;68949;53.176;18.088;2023-08-07T14:04:25;19.32;60.63
79489;SHT31;68949;53.176;18.088;2023-08-07T14:06:52;19.19;60.09
79489;SHT31;68949;53.176;18.088;2023-08-07T14:09:18;19.02;59.76
79489;SHT31;68949;53.176;18.088;2023-08-07T14:11:47;18.85;59.79
79489;SHT31;68949;53.176;18.088;2023-08-07T14:14:15;18.75;60.66
79489;SHT31;68949;53.176;18.088;2023-08-07T14:16:41;18.65;60.88
79489;SHT31;68949;53.176;18.088;2023-08-07T14:19:08;18.52;60.76
79489;SHT31;68949;53.176;18.088;2023-08-07T14:21:34;18.37;60.91
79489;SHT31;68949;53.176;18.088;2023-08-07T14:24:00;18.24;61.92
79489;SHT31;68949;53.176;18.088;2023-08-07T14:26:26;18.11;63.09
79489;SHT31;68949;53.176;18.088;2023-08-07T14:28:53;18.00;64.23
79489;SHT31;68949;53.176;18.088;2023-08-07T14:31:19;17.96;64.48
79489;SHT31;68949;53.176;18.088;2023-08-07T14:33:45;17.94;64.43
79489;SHT31;68949;53.176;18.088;2023-08-07T14:36:11;17.94;64.35
79489;SHT31;68949;53.176;18.088;2023-08-07T14:38:37;17.95;64.24
79489;SHT31;68949;53.176;18.088;2023-08-07T14:41:03;17.95;64.15
79489;SHT31;68949;53.176;18.088;2023-08-07T14:43:29;17.95;64.36
79489;SHT31;68949;53.176;18.088;2023-08-07T14:45:58;17.98;64.50
79489;SHT31;68949;53.176;18.088;2023-08-07T14:48:25;18.03;64.53
79489;SHT31;68949;53.176;18.088;2023-08-07T14:50:52;18.11;64.46
79489;SHT31;68949;53.176;18.088;2023-08-07T14:53:18;18.16;64.25
79489;SHT31;68949;53.176;18.088;2023-08-07T14:55:44;18.19;64.00
79489;SHT31;68949;53.176;18.088;2023-08-07T14:58:11;18.23;63.99
79489;SHT31;68949;53.176;18.088;2023-08-07T15:00:39;18.25;63.98
79489;SHT31;68949;53.176;18.088;2023-08-07T15:03:05;18.24;64.07
79489;SHT31;68949;53.176;18.088;2023-08-07T15:05:31;18.19;64.07
79489;SHT31;68949;53.176;18.088;2023-08-07T15:07:57;18.13;64.33
79489;SHT31;68949;53.176;18.088;2023-08-07T15:10:26;18.14;64.35
79489;SHT31;68949;53.176;18.088;2023-08-07T15:12:52;18.11;64.47
79489;SHT31;68949;53.176;18.088;2023-08-07T15:15:18;18.10;64.61
79489;SHT31;68949;53.176;18.088;2023-08-07T15:17:44;18.06;64.28
79489;SHT31;68949;53.176;18.088;2023-08-07T15:20:10;18.00;64.31
79489;SHT31;68949;53.176;18.088;2023-08-07T15:22:37;17.98;64.50
79489;SHT31;68949;53.176;18.088;2023-08-07T15:25:03;17.94;64.31
79489;SHT31;68949;53.176;18.088;2023-08-07T15:27:32;17.90;64.79
79489;SHT31;68949;53.176;18.088;2023-08-07T15:29:58;17.88;64.94